createdAt,value
2022-12-04T00:01:47.372Z,6.55
2022-12-04T00:04:15.821Z,7.18
2022-12-04T00:06:44.025Z,6.30
2022-12-04T00:09:13.599Z,7.55
2022-12-04T00:11:41.816Z,7.13
2022-12-04T00:14:10.253Z,7.18
2022-12-04T00:16:38.707Z,6.55
2022-12-04T00:19:06.971Z,7.30
2022-12-04T00:21:35.241Z,5.70
2022-12-04T00:24:03.466Z,6.18
2022-12-04T00:26:32.983Z,7.93
2022-12-04T00:29:01.527Z,6.57
2022-12-04T00:31:31.975Z,6.80
2022-12-04T00:34:02.160Z,6.50
2022-12-04T00:36:31.005Z,6.57
2022-12-04T00:39:01.551Z,5.90
2022-12-04T00:41:32.832Z,4.97
2022-12-04T00:44:01.901Z,5.82
2022-12-04T00:46:31.816Z,7.35
2022-12-04T00:49:02.495Z,7.07
2022-12-04T00:51:31.360Z,7.10
2022-12-04T00:53:59.538Z,6.50
2022-12-04T00:56:29.404Z,7.20
2022-12-04T00:59:01.267Z,7.00
2022-12-04T01:01:30.675Z,7.53
2022-12-04T01:03:58.920Z,7.80
2022-12-04T01:06:29.364Z,6.88
2022-12-04T01:08:59.390Z,6.35
2022-12-04T01:11:29.383Z,5.80
2022-12-04T01:13:59.852Z,5.90
2022-12-04T01:16:30.999Z,5.50
2022-12-04T01:18:59.233Z,6.10
2022-12-04T01:21:27.395Z,7.15
2022-12-04T01:23:55.941Z,7.65
2022-12-04T01:26:24.132Z,7.45
2022-12-04T01:28:52.344Z,6.85
2022-12-04T01:31:22.791Z,8.02
2022-12-04T01:33:52.122Z,7.47
2022-12-04T01:36:22.854Z,7.03
2022-12-04T01:38:51.821Z,6.78
2022-12-04T01:41:22.817Z,8.68
2022-12-04T01:44:09.726Z,7.88
2022-12-04T01:46:39.237Z,7.15
2022-12-04T01:49:09.404Z,7.40
2022-12-04T01:51:42.047Z,7.13
2022-12-04T01:54:14.921Z,7.05
2022-12-04T01:56:46.200Z,7.55
2022-12-04T01:59:17.767Z,8.50
2022-12-04T02:01:54.799Z,7.50
2022-12-04T02:04:23.043Z,7.10
2022-12-04T02:06:52.903Z,9.20
2022-12-04T02:09:26.807Z,6.20
2022-12-04T02:12:04.391Z,7.32
2022-12-04T02:14:38.813Z,7.63
2022-12-04T02:17:17.917Z,6.97
2022-12-04T02:20:06.766Z,7.03
2022-12-04T02:23:14.605Z,7.35
2022-12-04T02:25:49.240Z,6.20
2022-12-04T02:28:26.611Z,6.97
2022-12-04T02:30:59.677Z,6.70
2022-12-04T02:33:33.904Z,7.22
2022-12-04T02:36:12.505Z,7.25
2022-12-04T02:38:45.629Z,8.35
2022-12-04T02:41:18.328Z,7.57
2022-12-04T02:43:52.191Z,5.93
2022-12-04T02:46:27.762Z,6.50
2022-12-04T02:49:00.262Z,6.00
2022-12-04T02:51:33.252Z,6.20
2022-12-04T02:54:06.776Z,6.47
2022-12-04T02:56:40.205Z,6.00
2022-12-04T02:59:22.125Z,6.20
2022-12-04T03:01:53.877Z,6.38
2022-12-04T03:04:26.151Z,4.93
2022-12-04T03:06:59.225Z,6.72
2022-12-04T03:09:34.810Z,5.95
2022-12-04T03:12:11.532Z,5.45
2022-12-04T03:14:45.069Z,5.05
2022-12-04T03:17:17.484Z,5.53
2022-12-04T03:19:52.058Z,4.82
2022-12-04T03:22:21.908Z,3.92
2022-12-04T03:24:52.846Z,4.97
2022-12-04T03:27:27.350Z,5.25
2022-12-04T03:30:02.300Z,6.30
2022-12-04T03:32:36.691Z,4.68
2022-12-04T03:35:12.373Z,4.40
2022-12-04T03:37:48.044Z,4.93
2022-12-04T03:40:26.625Z,4.35
2022-12-04T03:43:00.276Z,3.88
2022-12-04T03:45:37.520Z,5.15
2022-12-04T03:48:09.025Z,5.05
2022-12-04T03:50:39.707Z,4.30
2022-12-04T03:53:14.470Z,4.80
2022-12-04T03:55:48.175Z,5.50
2022-12-04T03:58:21.217Z,4.80
2022-12-04T04:00:54.205Z,4.35
2022-12-04T04:03:25.937Z,4.88
2022-12-04T04:05:58.291Z,5.07
2022-12-04T04:08:33.981Z,4.55
2022-12-04T04:11:08.856Z,4.53
2022-12-04T04:13:59.294Z,3.42
2022-12-04T04:16:50.114Z,5.03
2022-12-04T04:19:38.165Z,3.97
2022-12-04T04:22:28.003Z,5.25
2022-12-04T04:25:00.702Z,5.22
2022-12-04T04:27:28.924Z,4.82
2022-12-04T04:29:57.666Z,4.28
2022-12-04T04:32:36.097Z,4.70
2022-12-04T04:35:12.519Z,4.53
2022-12-04T04:37:47.107Z,5.68
2022-12-04T04:40:21.857Z,4.97
2022-12-04T04:42:56.151Z,4.18
2022-12-04T04:45:28.671Z,4.82
2022-12-04T04:48:04.079Z,4.95
2022-12-04T04:50:34.377Z,4.80
2022-12-04T04:53:06.882Z,4.55
2022-12-04T04:55:36.186Z,4.15
2022-12-04T04:58:08.665Z,4.20
2022-12-04T05:00:37.454Z,4.45
2022-12-04T05:03:07.342Z,4.35
2022-12-04T05:05:35.493Z,4.47
2022-12-04T05:08:03.651Z,3.72
2022-12-04T05:10:32.380Z,3.30
2022-12-04T05:13:00.536Z,3.35
2022-12-04T05:15:28.723Z,3.45
2022-12-04T05:17:56.854Z,4.28
2022-12-04T05:20:25.447Z,3.40
2022-12-04T05:22:53.615Z,3.60
2022-12-04T05:25:21.767Z,3.72
2022-12-04T05:27:49.967Z,3.97
2022-12-04T05:30:18.847Z,3.63
2022-12-04T05:32:46.949Z,2.95
2022-12-04T05:35:15.206Z,3.20
2022-12-04T05:37:45.614Z,3.30
2022-12-04T05:40:14.107Z,3.03
2022-12-04T05:42:42.466Z,3.67
2022-12-04T05:45:11.651Z,2.80
2022-12-04T05:47:41.140Z,2.70
2022-12-04T05:50:10.816Z,4.28
2022-12-04T05:52:39.214Z,3.30
2022-12-04T05:55:09.346Z,3.47
2022-12-04T05:57:37.486Z,3.70
2022-12-04T06:00:06.866Z,3.45
2022-12-04T06:02:39.433Z,2.65
2022-12-04T06:05:08.385Z,3.28
2022-12-04T06:07:36.915Z,3.50
2022-12-04T06:10:06.042Z,2.70
2022-12-04T06:12:35.528Z,3.25
2022-12-04T06:15:03.818Z,2.67
2022-12-04T06:17:32.007Z,2.25
2022-12-04T06:20:00.900Z,3.00
2022-12-04T06:22:29.201Z,3.30
2022-12-04T06:24:57.500Z,2.97
2022-12-04T06:27:27.670Z,3.60
2022-12-04T06:29:58.298Z,2.80
2022-12-04T06:32:27.072Z,2.45
2022-12-04T06:34:56.256Z,3.65
2022-12-04T06:37:26.105Z,2.78
2022-12-04T06:39:54.779Z,2.70
2022-12-04T06:42:23.211Z,3.35
2022-12-04T06:44:51.342Z,3.25
2022-12-04T06:47:20.862Z,2.65
2022-12-04T06:49:51.398Z,1.90
2022-12-04T06:52:19.583Z,2.90
2022-12-04T06:54:48.045Z,4.00
2022-12-04T06:57:16.250Z,3.65
2022-12-04T06:59:44.429Z,2.78
2022-12-04T07:02:12.655Z,2.60
2022-12-04T07:04:42.215Z,3.00
2022-12-04T07:07:10.934Z,3.25
2022-12-04T07:09:39.396Z,4.40
2022-12-04T07:12:08.088Z,2.92
2022-12-04T07:14:36.215Z,3.53
2022-12-04T07:17:04.530Z,3.65
2022-12-04T07:19:32.694Z,3.03
2022-12-04T07:22:02.224Z,4.43
2022-12-04T07:24:30.372Z,3.50
2022-12-04T07:26:58.523Z,3.00
2022-12-04T07:29:26.665Z,3.67
2022-12-04T07:31:54.960Z,2.95
2022-12-04T07:34:23.359Z,3.60
2022-12-04T07:36:51.497Z,3.05
2022-12-04T07:39:21.056Z,2.85
2022-12-04T07:41:49.200Z,2.90
2022-12-04T07:44:17.383Z,3.78
2022-12-04T07:46:45.668Z,3.60
2022-12-04T07:49:14.235Z,3.17
2022-12-04T07:51:42.430Z,3.00
2022-12-04T07:54:11.166Z,3.75
2022-12-04T07:56:40.984Z,3.97
2022-12-04T07:59:09.165Z,3.55
2022-12-04T08:01:37.357Z,4.18
2022-12-04T08:04:05.699Z,4.50
2022-12-04T08:06:35.883Z,5.13
2022-12-04T08:09:09.510Z,6.13
2022-12-04T08:11:38.462Z,6.53
2022-12-04T08:14:09.706Z,5.00
2022-12-04T08:16:38.274Z,4.45
2022-12-04T08:19:06.690Z,4.40
2022-12-04T08:21:35.087Z,4.72
2022-12-04T08:24:03.561Z,5.30
2022-12-04T08:26:33.459Z,5.75
2022-12-04T08:29:02.454Z,6.60
2022-12-04T08:31:33.947Z,5.45
2022-12-04T08:34:04.727Z,8.18
2022-12-04T08:36:33.587Z,12.13
2022-12-04T08:39:01.923Z,16.30
2022-12-04T08:41:30.127Z,15.80
2022-12-04T08:43:58.888Z,14.50
2022-12-04T08:46:28.373Z,11.75
2022-12-04T08:48:58.219Z,13.15
2022-12-04T08:51:29.132Z,9.82
2022-12-04T08:53:58.591Z,9.13
2022-12-04T08:56:28.236Z,7.82
2022-12-04T08:58:57.402Z,8.77
2022-12-04T09:01:26.617Z,10.00
2022-12-04T09:03:55.046Z,9.90
2022-12-04T09:06:25.119Z,13.15
2022-12-04T09:08:54.945Z,13.77
2022-12-04T09:11:25.935Z,11.95
2022-12-04T09:13:54.820Z,11.80
2022-12-04T09:16:24.682Z,11.77
2022-12-04T09:18:53.351Z,11.70
2022-12-04T09:21:22.766Z,12.60
2022-12-04T09:23:52.519Z,12.43
2022-12-04T09:26:24.487Z,14.15
2022-12-04T09:28:53.723Z,10.32
2022-12-04T09:31:24.284Z,9.60
2022-12-04T09:33:52.802Z,8.85
2022-12-04T09:36:21.195Z,10.60
2022-12-04T09:38:51.091Z,6.82
2022-12-04T09:41:34.867Z,9.25
2022-12-04T09:44:07.355Z,10.07
2022-12-04T09:46:39.442Z,8.55
2022-12-04T09:49:13.907Z,9.18
2022-12-04T09:51:42.936Z,10.20
2022-12-04T09:54:17.594Z,8.90
2022-12-04T09:56:55.329Z,10.65
2022-12-04T09:59:25.696Z,9.70
2022-12-04T10:01:59.922Z,9.50
2022-12-04T10:04:28.173Z,10.63
2022-12-04T10:07:05.766Z,10.13
2022-12-04T10:09:44.774Z,11.52
2022-12-04T10:12:23.429Z,10.70
2022-12-04T10:15:01.284Z,10.45
2022-12-04T10:17:53.224Z,12.73
2022-12-04T10:20:35.913Z,8.77
2022-12-04T10:23:14.167Z,10.88
2022-12-04T10:25:43.821Z,11.30
2022-12-04T10:28:23.709Z,10.85
2022-12-04T10:30:53.507Z,11.23
2022-12-04T10:33:25.531Z,10.35
2022-12-04T10:35:55.939Z,11.80
2022-12-04T10:38:33.967Z,10.63
2022-12-04T10:41:10.252Z,9.10
2022-12-04T10:43:46.784Z,8.65
2022-12-04T10:46:17.124Z,10.50
2022-12-04T10:48:48.435Z,10.07
2022-12-04T10:51:18.035Z,11.48
2022-12-04T10:53:49.394Z,12.43
2022-12-04T10:56:20.261Z,11.07
2022-12-04T10:58:59.998Z,11.00
2022-12-04T11:01:29.688Z,10.88
2022-12-04T11:04:02.944Z,9.18
2022-12-04T11:06:31.809Z,11.32
2022-12-04T11:09:00.886Z,8.43
2022-12-04T11:11:32.033Z,11.05
2022-12-04T11:14:07.259Z,14.80
2022-12-04T11:16:38.645Z,15.05
2022-12-04T11:19:21.446Z,13.73
2022-12-04T11:21:49.860Z,13.02
2022-12-04T11:24:24.444Z,13.70
2022-12-04T11:26:53.496Z,12.48
2022-12-04T11:29:30.187Z,15.40
2022-12-04T11:32:02.747Z,14.00
2022-12-04T11:34:37.856Z,16.52
2022-12-04T11:37:07.612Z,15.38
2022-12-04T11:39:38.206Z,14.70
2022-12-04T11:42:07.900Z,14.45
2022-12-04T11:44:37.784Z,14.77
2022-12-04T11:47:07.967Z,14.15
2022-12-04T11:49:40.872Z,15.35
2022-12-04T11:52:26.831Z,14.10
2022-12-04T11:55:02.384Z,15.18
2022-12-04T11:57:39.282Z,14.98
2022-12-04T12:00:14.911Z,15.25
2022-12-04T12:02:56.643Z,13.60
2022-12-04T12:05:48.297Z,14.27
2022-12-04T12:08:29.409Z,13.95
2022-12-04T12:11:04.760Z,15.73
2022-12-04T12:13:39.351Z,16.60
2022-12-04T12:16:18.014Z,19.08
2022-12-04T12:19:14.145Z,19.13
2022-12-04T12:21:52.347Z,18.63
2022-12-04T12:24:26.893Z,19.35
2022-12-04T12:27:05.653Z,19.42
2022-12-04T12:29:52.582Z,19.08
2022-12-04T12:32:37.580Z,20.63
2022-12-04T12:35:14.239Z,21.15
2022-12-04T12:37:49.453Z,21.83
2022-12-04T12:40:30.199Z,20.27
2022-12-04T12:43:02.395Z,23.65
2022-12-04T12:45:39.905Z,22.70
2022-12-04T12:48:17.372Z,19.92
2022-12-04T12:51:08.983Z,17.67
2022-12-04T12:53:44.475Z,20.30
2022-12-04T12:56:13.429Z,18.38
2022-12-04T12:58:45.208Z,23.05
2022-12-04T13:01:18.235Z,23.98
2022-12-04T13:03:53.467Z,21.90
2022-12-04T13:06:26.588Z,18.20
2022-12-04T13:09:06.591Z,17.73
2022-12-04T13:11:35.520Z,16.83
2022-12-04T13:14:04.975Z,17.35
2022-12-04T13:16:37.742Z,17.35
2022-12-04T13:19:17.500Z,17.55
2022-12-04T13:21:50.470Z,21.33
2022-12-04T13:24:57.714Z,19.73
2022-12-04T13:27:36.344Z,18.55
2022-12-04T13:30:14.376Z,19.92
2022-12-04T13:33:36.568Z,16.23
2022-12-04T13:36:19.025Z,15.55
2022-12-04T13:38:59.581Z,19.30
2022-12-04T13:41:29.278Z,18.42
2022-12-04T13:44:02.843Z,18.48
2022-12-04T13:46:37.436Z,18.42
2022-12-04T13:49:10.961Z,20.15
2022-12-04T13:51:41.783Z,16.83
2022-12-04T13:54:29.341Z,18.38
2022-12-04T13:57:11.488Z,17.33
2022-12-04T13:59:41.818Z,18.40
2022-12-04T14:02:26.540Z,19.45
2022-12-04T14:04:58.896Z,19.00
2022-12-04T14:07:31.928Z,20.75
2022-12-04T14:10:04.698Z,20.95
2022-12-04T14:12:36.586Z,21.45
2022-12-04T14:15:07.264Z,20.35
2022-12-04T14:17:37.109Z,21.75
2022-12-04T14:20:08.904Z,18.58
2022-12-04T14:22:45.617Z,19.35
2022-12-04T14:25:34.306Z,18.70
2022-12-04T14:28:14.887Z,20.10
2022-12-04T14:30:45.275Z,18.02
2022-12-04T14:33:21.555Z,17.33
2022-12-04T14:35:59.125Z,19.40
2022-12-04T14:38:33.940Z,18.88
2022-12-04T14:41:03.126Z,17.58
2022-12-04T14:43:36.504Z,16.80
2022-12-04T14:46:10.457Z,19.95
2022-12-04T14:48:44.159Z,17.33
2022-12-04T14:51:20.067Z,16.95
2022-12-04T14:53:57.279Z,16.27
2022-12-04T14:56:41.616Z,14.82
2022-12-04T14:59:17.960Z,14.73
2022-12-04T15:01:48.418Z,18.02
2022-12-04T15:04:24.085Z,17.80
2022-12-04T15:06:59.706Z,15.82
2022-12-04T15:09:47.580Z,17.95
2022-12-04T15:12:37.192Z,17.25
2022-12-04T15:15:16.267Z,15.73
2022-12-04T15:17:44.819Z,15.88
2022-12-04T15:20:17.866Z,16.38
2022-12-04T15:22:46.289Z,16.42
2022-12-04T15:25:21.795Z,15.77
2022-12-04T15:27:54.030Z,13.93
2022-12-04T15:30:24.084Z,14.60
2022-12-04T15:32:54.464Z,16.83
2022-12-04T15:35:27.374Z,15.00
2022-12-04T15:37:56.555Z,17.92
2022-12-04T15:40:29.644Z,18.27
2022-12-04T15:43:16.738Z,16.02
2022-12-04T15:45:45.775Z,13.75
2022-12-04T15:48:24.858Z,15.32
2022-12-04T15:50:58.377Z,12.60
2022-12-04T15:53:29.269Z,14.07
2022-12-04T15:56:03.634Z,13.13
2022-12-04T15:58:33.578Z,11.73
2022-12-04T16:01:04.594Z,12.93
2022-12-04T16:03:36.960Z,12.27
2022-12-04T16:06:16.006Z,13.55
2022-12-04T16:08:46.272Z,13.48
2022-12-04T16:11:30.984Z,15.45
2022-12-04T16:14:16.282Z,16.05
2022-12-04T16:16:46.825Z,18.73
2022-12-04T16:19:19.216Z,16.52
2022-12-04T16:21:47.630Z,14.38
2022-12-04T16:24:15.880Z,14.25
2022-12-04T16:26:45.487Z,13.77
2022-12-04T16:29:13.606Z,14.07
2022-12-04T16:31:41.846Z,13.55
2022-12-04T16:34:12.264Z,12.70
2022-12-04T16:36:41.909Z,14.25
2022-12-04T16:39:10.220Z,14.90
2022-12-04T16:41:38.381Z,15.68
2022-12-04T16:44:15.036Z,12.70
2022-12-04T16:46:45.783Z,15.30
2022-12-04T16:49:14.730Z,13.63
2022-12-04T16:51:46.926Z,14.30
2022-12-04T16:54:15.170Z,14.98
2022-12-04T16:56:43.434Z,12.57
2022-12-04T16:59:12.967Z,12.80
2022-12-04T17:01:45.173Z,12.15
2022-12-04T17:04:13.617Z,14.18
2022-12-04T17:06:42.323Z,14.80
2022-12-04T17:09:10.780Z,14.13
2022-12-04T17:11:39.323Z,14.77
2022-12-04T17:14:08.030Z,13.23
2022-12-04T17:16:41.284Z,18.45
2022-12-04T17:19:10.192Z,16.48
2022-12-04T17:21:38.431Z,14.98
2022-12-04T17:24:08.161Z,14.27
2022-12-04T17:26:36.329Z,15.15
2022-12-04T17:29:05.036Z,14.40
2022-12-04T17:31:33.548Z,14.95
2022-12-04T17:34:03.311Z,13.98
2022-12-04T17:36:31.685Z,13.38
2022-12-04T17:39:01.946Z,14.90
2022-12-04T17:41:30.204Z,14.20
2022-12-04T17:44:01.080Z,13.85
2022-12-04T17:46:29.337Z,14.27
2022-12-04T17:49:00.553Z,13.77
2022-12-04T17:51:35.018Z,17.33
2022-12-04T17:54:03.341Z,13.05
2022-12-04T17:56:31.590Z,14.10
2022-12-04T17:59:00.070Z,14.05
2022-12-04T18:01:30.083Z,14.73
2022-12-04T18:04:01.908Z,14.25
2022-12-04T18:06:31.600Z,14.50
2022-12-04T18:09:02.062Z,15.48
2022-12-04T18:11:32.296Z,13.40
2022-12-04T18:14:04.827Z,14.43
2022-12-04T18:16:38.229Z,14.70
2022-12-04T18:19:06.802Z,15.60
2022-12-04T18:21:35.474Z,15.60
2022-12-04T18:24:06.189Z,14.30
2022-12-04T18:26:36.419Z,17.98
2022-12-04T18:29:05.358Z,18.67
2022-12-04T18:31:34.580Z,17.17
2022-12-04T18:34:03.240Z,15.25
2022-12-04T18:36:32.545Z,13.38
2022-12-04T18:39:02.978Z,13.73
2022-12-04T18:41:32.713Z,12.20
2022-12-04T18:44:02.375Z,13.80
2022-12-04T18:46:31.262Z,12.25
2022-12-04T18:49:00.295Z,13.23
2022-12-04T18:51:30.914Z,13.88
2022-12-04T18:54:01.764Z,12.30
2022-12-04T18:56:33.810Z,15.88
2022-12-04T18:59:05.821Z,14.30
2022-12-04T19:01:34.131Z,17.13
2022-12-04T19:04:04.937Z,14.65
2022-12-04T19:06:34.659Z,12.90
2022-12-04T19:09:05.393Z,12.13
2022-12-04T19:11:36.037Z,10.65
2022-12-04T19:14:12.492Z,13.00
2022-12-04T19:16:44.839Z,13.48
2022-12-04T19:19:14.103Z,13.20
2022-12-04T19:21:42.510Z,12.68
2022-12-04T19:24:11.461Z,11.35
2022-12-04T19:26:41.674Z,11.27
2022-12-04T19:29:12.867Z,13.07
2022-12-04T19:31:41.158Z,12.45
2022-12-04T19:34:09.436Z,12.38
2022-12-04T19:36:37.944Z,12.27
2022-12-04T19:39:07.097Z,12.98
2022-12-04T19:41:37.278Z,10.63
2022-12-04T19:44:26.328Z,10.52
2022-12-04T19:46:55.663Z,12.15
2022-12-04T19:49:23.885Z,11.20
2022-12-04T19:51:52.284Z,10.60
2022-12-04T19:54:21.801Z,12.27
2022-12-04T19:56:52.531Z,10.98
2022-12-04T19:59:22.210Z,12.07
2022-12-04T20:01:50.538Z,15.00
2022-12-04T20:04:18.931Z,16.10
2022-12-04T20:06:47.862Z,15.20
2022-12-04T20:09:19.235Z,12.93
2022-12-04T20:11:47.815Z,10.93
2022-12-04T20:14:16.072Z,12.18
2022-12-04T20:16:46.369Z,10.10
2022-12-04T20:19:16.996Z,10.45
2022-12-04T20:21:46.400Z,9.98
2022-12-04T20:24:16.723Z,8.77
2022-12-04T20:26:47.080Z,9.73
2022-12-04T20:29:19.103Z,10.50
2022-12-04T20:31:48.896Z,11.48
2022-12-04T20:34:19.349Z,9.85
2022-12-04T20:36:49.027Z,11.02
2022-12-04T20:39:19.053Z,10.90
2022-12-04T20:41:47.537Z,12.25
2022-12-04T20:44:17.689Z,11.15
2022-12-04T20:46:46.153Z,10.65
2022-12-04T20:49:21.640Z,11.23
2022-12-04T20:51:52.023Z,11.60
2022-12-04T20:54:22.780Z,10.90
2022-12-04T20:56:53.096Z,10.57
2022-12-04T20:59:23.794Z,11.90
2022-12-04T21:01:52.700Z,10.18
2022-12-04T21:04:23.070Z,10.80
2022-12-04T21:06:51.405Z,11.88
2022-12-04T21:09:21.596Z,9.55
2022-12-04T21:11:51.532Z,11.50
2022-12-04T21:14:38.579Z,10.15
2022-12-04T21:17:09.438Z,9.88
2022-12-04T21:19:39.619Z,9.70
2022-12-04T21:22:07.922Z,9.07
2022-12-04T21:24:38.749Z,10.57
2022-12-04T21:27:09.094Z,10.05
2022-12-04T21:29:37.478Z,10.50
2022-12-04T21:32:06.673Z,11.10
2022-12-04T21:34:35.274Z,8.82
2022-12-04T21:37:04.828Z,10.60
2022-12-04T21:39:33.446Z,9.82
2022-12-04T21:42:18.815Z,10.55
2022-12-04T21:44:46.958Z,10.30
2022-12-04T21:47:15.136Z,11.73
2022-12-04T21:49:43.282Z,12.98
2022-12-04T21:52:13.011Z,13.07
2022-12-04T21:54:41.187Z,11.80
2022-12-04T21:57:09.465Z,12.77
2022-12-04T21:59:37.702Z,10.77
2022-12-04T22:02:05.942Z,12.20
2022-12-04T22:04:34.773Z,12.88
2022-12-04T22:07:02.944Z,10.60
2022-12-04T22:09:32.538Z,11.10
2022-12-04T22:12:00.966Z,12.25
2022-12-04T22:14:30.573Z,14.48
2022-12-04T22:16:59.603Z,14.40
2022-12-04T22:19:27.877Z,16.33
2022-12-04T22:21:55.992Z,16.65
2022-12-04T22:24:24.181Z,18.90
2022-12-04T22:26:54.833Z,15.80
2022-12-04T22:32:11.163Z,21.77
2022-12-04T22:34:39.931Z,21.75
2022-12-04T22:37:08.118Z,18.83
2022-12-04T22:39:36.298Z,18.50
2022-12-04T22:42:05.936Z,17.02
2022-12-04T22:44:34.673Z,17.08
2022-12-04T22:47:03.415Z,17.27
2022-12-04T22:49:31.585Z,15.00
2022-12-04T22:52:00.733Z,19.42
2022-12-04T22:54:28.967Z,15.80
2022-12-04T22:56:57.179Z,15.60
2022-12-04T22:59:28.815Z,14.80
2022-12-04T23:01:57.059Z,15.32
2022-12-04T23:04:25.205Z,17.38
2022-12-04T23:06:53.485Z,17.38
2022-12-04T23:09:21.843Z,17.27
2022-12-04T23:11:52.308Z,16.50
2022-12-04T23:14:20.876Z,17.80
2022-12-04T23:16:51.653Z,18.00
2022-12-04T23:19:21.071Z,18.45
2022-12-04T23:21:56.389Z,16.55
2022-12-04T23:24:25.764Z,17.15
2022-12-04T23:26:54.114Z,16.30
2022-12-04T23:29:52.713Z,15.75
2022-12-04T23:32:11.825Z,18.48
2022-12-04T23:34:40.744Z,17.58
2022-12-04T23:37:10.263Z,16.00
2022-12-04T23:39:38.424Z,16.85
2022-12-04T23:42:06.691Z,16.70
2022-12-04T23:44:35.577Z,15.60
2022-12-04T23:47:04.293Z,14.60
2022-12-04T23:49:34.297Z,14.68
2022-12-04T23:52:02.682Z,14.07
2022-12-04T23:54:34.990Z,14.90
2022-12-04T23:57:03.382Z,16.83
2022-12-04T23:59:31.539Z,15.05
